Time;durP1;ratioP1;P1;durP2;ratioP2;P2;SDS_P1;SDS_P2;PMS_P1;PMS_P2;Temp;Humidity;BMP_temperature;BMP_pressure;BME280_temperature;BME280_humidity;BME280_pressure;Samples;Min_cycle;Max_cycle;Signal;HPM_P1;HPM_P2
2023/06/12 00:02:05;;;;;;;9.07;3.00;;;19.30;91.60;;;;;;4985920;28;20042;-59
2023/06/12 00:04:31;;;;;;;6.40;3.20;;;19.30;91.70;;;;;;4986335;28;20647;-60
2023/06/12 00:06:57;;;;;;;6.85;2.97;;;19.30;91.80;;;;;;4984812;28;20066;-54
2023/06/12 00:09:23;;;;;;;8.23;2.83;;;19.30;91.70;;;;;;4985663;28;20169;-61
2023/06/12 00:11:49;;;;;;;8.00;3.05;;;19.20;91.70;;;;;;4985755;28;20042;-59
2023/06/12 00:14:14;;;;;;;8.55;3.03;;;19.30;91.80;;;;;;4985904;28;20075;-55
2023/06/12 00:16:40;;;;;;;7.15;2.65;;;19.00;91.80;;;;;;4986247;28;20050;-55
2023/06/12 00:19:05;;;;;;;4.40;2.90;;;19.00;91.90;;;;;;4985338;28;20050;-58
2023/06/12 00:21:31;;;;;;;6.38;3.03;;;19.00;92.00;;;;;;4985123;28;20078;-55
2023/06/12 00:23:56;;;;;;;7.53;2.92;;;18.90;92.10;;;;;;4985575;28;20086;-57
2023/06/12 00:26:22;;;;;;;7.75;3.05;;;18.90;92.10;;;;;;4984712;28;20042;-60
2023/06/12 00:28:47;;;;;;;8.00;3.05;;;18.90;92.10;;;;;;4985585;28;20366;-52
2023/06/12 00:31:14;;;;;;;5.90;2.60;;;18.90;92.20;;;;;;4985552;28;20433;-59
2023/06/12 00:33:41;;;;;;;4.43;2.78;;;18.80;92.20;;;;;;4985449;28;20125;-59
2023/06/12 00:36:06;;;;;;;5.45;2.88;;;18.90;92.40;;;;;;4984231;28;20042;-55
2023/06/12 00:38:34;;;;;;;8.52;3.42;;;18.80;92.40;;;;;;4985583;28;20038;-57
2023/06/12 00:41:00;;;;;;;6.30;3.03;;;18.80;92.40;;;;;;4985198;28;20054;-60
2023/06/12 00:43:25;;;;;;;12.43;3.20;;;18.80;92.50;;;;;;4984346;28;20043;-59
2023/06/12 00:45:51;;;;;;;5.25;2.83;;;18.70;92.60;;;;;;4985435;28;20042;-56
2023/06/12 00:48:17;;;;;;;9.57;3.33;;;18.60;92.70;;;;;;4985076;28;20054;-59
2023/06/12 00:50:44;;;;;;;7.05;2.83;;;18.60;92.90;;;;;;4985169;28;20038;-55
2023/06/12 00:53:10;;;;;;;6.82;3.13;;;18.50;93.30;;;;;;4966264;28;20097;-52
2023/06/12 00:55:36;;;;;;;10.20;3.33;;;18.50;93.10;;;;;;4985655;28;20073;-57
2023/06/12 00:58:02;;;;;;;6.57;3.45;;;18.40;93.20;;;;;;4984753;28;20046;-53
2023/06/12 01:00:28;;;;;;;8.90;3.20;;;18.50;93.40;;;;;;4984535;28;20079;-53
2023/06/12 01:02:56;;;;;;;8.50;3.45;;;18.50;93.60;;;;;;4985079;28;20042;-57
2023/06/12 01:05:32;;;;;;;7.93;3.13;;;18.40;93.80;;;;;;4984319;28;20051;-59
2023/06/12 01:08:16;;;;;;;6.30;3.30;;;18.40;94.10;;;;;;4983443;28;20402;-55
2023/06/12 01:10:47;;;;;;;6.57;3.35;;;18.30;94.70;;;;;;4984154;28;20042;-55
2023/06/12 01:13:16;;;;;;;6.72;2.95;;;18.20;94.50;;;;;;5014852;23;20054;-56
2023/06/12 01:15:41;;;;;;;8.77;3.25;;;18.20;94.90;;;;;;4950294;28;20046;-52
2023/06/12 01:18:08;;;;;;;8.40;3.20;;;18.10;94.80;;;;;;4967192;28;20062;-59
2023/06/12 01:20:34;;;;;;;5.50;3.30;;;18.00;94.90;;;;;;4966709;28;20058;-57
2023/06/12 01:23:19;;;;;;;4.53;2.83;;;18.00;95.10;;;;;;4967052;28;20043;-53
2023/06/12 01:26:33;;;;;;;13.65;3.25;;;17.90;95.30;;;;;;4967738;28;20042;-56
2023/06/12 01:29:20;;;;;;;9.45;3.35;;;17.90;95.90;;;;;;4938924;28;20505;-58
2023/06/12 01:32:01;;;;;;;7.35;3.15;;;17.80;95.60;;;;;;4967560;28;20054;-57
2023/06/12 01:34:50;;;;;;;6.88;3.40;;;17.80;96.20;;;;;;4949617;28;20128;-59
2023/06/12 01:37:31;;;;;;;7.25;3.35;;;17.80;96.20;;;;;;4966656;28;20045;-59
2023/06/12 01:39:59;;;;;;;7.20;3.13;;;17.70;96.30;;;;;;4967626;28;20061;-58
2023/06/12 01:42:30;;;;;;;6.65;3.40;;;17.70;96.20;;;;;;4966769;28;20405;-58
2023/06/12 01:44:56;;;;;;;8.48;3.33;;;17.60;96.50;;;;;;4967481;28;20069;-58
2023/06/12 01:47:22;;;;;;;9.30;3.30;;;17.50;96.50;;;;;;4967168;28;20035;-50
2023/06/12 01:49:48;;;;;;;6.75;3.38;;;17.40;96.80;;;;;;4967360;28;20058;-59
2023/06/12 01:52:14;;;;;;;6.40;3.38;;;17.40;97.10;;;;;;4966405;28;20047;-59
2023/06/12 01:54:40;;;;;;;8.18;3.63;;;17.20;97.30;;;;;;4966726;28;20050;-52
2023/06/12 01:57:06;;;;;;;6.63;3.20;;;17.20;97.50;;;;;;4949886;28;20058;-59
2023/06/12 01:59:34;;;;;;;5.63;3.13;;;17.10;97.70;;;;;;4966786;28;20065;-57
2023/06/12 02:02:00;;;;;;;12.85;3.80;;;17.10;98.00;;;;;;4966198;28;20057;-59
2023/06/12 02:04:28;;;;;;;9.77;3.33;;;17.10;98.20;;;;;;4966892;28;20042;-50
2023/06/12 02:06:53;;;;;;;7.57;3.50;;;17.10;98.20;;;;;;4966328;28;20214;-53
2023/06/12 02:09:19;;;;;;;4.72;3.33;;;17.10;98.20;;;;;;4966899;28;20197;-54
2023/06/12 02:11:45;;;;;;;8.63;3.53;;;17.10;98.20;;;;;;4966057;28;20050;-55
2023/06/12 02:14:10;;;;;;;8.18;3.65;;;17.00;98.40;;;;;;4966694;28;20144;-57
2023/06/12 02:16:36;;;;;;;8.80;3.58;;;17.00;98.50;;;;;;4965530;28;20042;-59
2023/06/12 02:19:02;;;;;;;7.57;3.70;;;17.00;98.80;;;;;;4966448;28;20043;-58
2023/06/12 02:21:28;;;;;;;5.00;3.40;;;16.90;98.90;;;;;;4966100;28;20043;-59
2023/06/12 02:23:53;;;;;;;6.82;3.10;;;16.80;99.20;;;;;;4949397;28;20094;-60
2023/06/12 02:26:19;;;;;;;11.80;3.83;;;16.80;99.40;;;;;;4966318;28;20054;-57
2023/06/12 02:29:04;;;;;;;5.10;3.50;;;16.80;99.60;;;;;;4965971;28;20050;-56
2023/06/12 02:31:30;;;;;;;7.65;3.65;;;16.70;99.90;;;;;;4966556;28;20047;-52
2023/06/12 02:33:55;;;;;;;9.45;3.97;;;16.80;99.80;;;;;;4966083;28;20054;-59
2023/06/12 02:36:21;;;;;;;5.28;3.45;;;16.70;99.80;;;;;;4965996;28;20478;-57
2023/06/12 02:38:48;;;;;;;7.75;3.85;;;16.80;99.90;;;;;;4948452;28;20043;-56
2023/06/12 02:41:13;;;;;;;7.72;3.58;;;16.60;99.90;;;;;;4967116;28;20058;-60
2023/06/12 02:43:40;;;;;;;7.03;3.92;;;16.60;99.90;;;;;;4948719;28;20074;-51
2023/06/12 02:46:05;;;;;;;10.30;4.28;;;16.70;99.90;;;;;;4957706;28;20537;-51
2023/06/12 02:48:31;;;;;;;6.57;3.88;;;16.70;99.90;;;;;;4946778;29;20054;-52
2023/06/12 02:50:56;;;;;;;10.18;3.88;;;16.70;99.90;;;;;;4964192;28;20057;-60
2023/06/12 02:53:22;;;;;;;8.52;4.15;;;16.70;99.90;;;;;;4966089;28;20359;-54
2023/06/12 02:55:47;;;;;;;7.78;3.70;;;16.60;99.90;;;;;;4966558;28;20049;-54
2023/06/12 02:58:13;;;;;;;6.93;3.92;;;16.40;99.90;;;;;;4966811;28;20042;-59
2023/06/12 03:00:38;;;;;;;7.70;3.70;;;16.30;99.90;;;;;;4965317;28;20050;-57
2023/06/12 03:03:06;;;;;;;8.05;4.03;;;16.30;99.90;;;;;;4965624;28;20057;-60
2023/06/12 03:05:31;;;;;;;6.95;3.67;;;16.10;99.90;;;;;;4965231;28;20047;-58
2023/06/12 03:07:57;;;;;;;8.48;4.30;;;16.00;99.90;;;;;;4964999;28;20039;-56
2023/06/12 03:10:23;;;;;;;10.25;4.38;;;15.90;99.90;;;;;;4965846;28;20035;-58
2023/06/12 03:12:49;;;;;;;7.45;4.03;;;15.90;99.90;;;;;;4978570;28;20094;-60
2023/06/12 03:15:15;;;;;;;7.25;4.20;;;15.80;99.90;;;;;;4986091;28;20062;-50
2023/06/12 03:17:40;;;;;;;9.68;3.88;;;15.70;99.90;;;;;;4984864;28;20763;-58
2023/06/12 03:20:08;;;;;;;6.70;4.10;;;15.60;99.90;;;;;;4985159;28;20082;-51
2023/06/12 03:22:33;;;;;;;8.75;4.22;;;15.60;99.90;;;;;;4984405;28;20096;-51
2023/06/12 03:24:59;;;;;;;12.32;4.28;;;15.70;99.90;;;;;;4985060;28;20066;-59
2023/06/12 03:27:25;;;;;;;6.97;4.20;;;15.70;99.90;;;;;;4985590;28;20070;-59
2023/06/12 03:29:51;;;;;;;8.70;4.88;;;16.00;99.90;;;;;;4988870;28;20117;-56
2023/06/12 03:32:17;;;;;;;10.63;4.50;;;15.90;99.90;;;;;;4988560;28;20038;-53
2023/06/12 03:34:43;;;;;;;9.70;4.13;;;15.80;99.90;;;;;;4989397;28;20083;-60
2023/06/12 03:37:08;;;;;;;7.07;4.63;;;15.70;99.90;;;;;;4987843;28;20050;-57
2023/06/12 03:39:34;;;;;;;8.98;4.35;;;15.90;99.90;;;;;;4988826;28;20073;-58
2023/06/12 03:42:00;;;;;;;8.10;4.53;;;15.60;99.90;;;;;;4970953;28;20042;-60
2023/06/12 03:44:25;;;;;;;7.90;4.65;;;15.70;99.90;;;;;;4971895;28;20705;-56
2023/06/12 03:46:51;;;;;;;11.63;5.03;;;15.60;99.90;;;;;;4989166;28;20046;-55
2023/06/12 03:49:16;;;;;;;6.78;4.35;;;15.90;99.90;;;;;;4988883;28;20046;-53
2023/06/12 03:51:42;;;;;;;9.43;4.60;;;15.70;99.90;;;;;;4988092;28;20080;-59
2023/06/12 03:54:09;;;;;;;10.23;4.90;;;15.70;99.90;;;;;;4971644;28;20235;-54
2023/06/12 03:56:35;;;;;;;7.63;4.38;;;15.80;99.90;;;;;;4988470;28;20125;-59
2023/06/12 03:59:01;;;;;;;8.60;5.03;;;15.80;99.90;;;;;;4987885;28;20145;-58
2023/06/12 04:01:27;;;;;;;10.05;4.95;;;15.70;99.90;;;;;;4988554;28;20054;-54
2023/06/12 04:03:53;;;;;;;8.85;4.72;;;15.80;99.90;;;;;;4988443;28;20437;-55
2023/06/12 04:06:24;;;;;;;8.18;4.45;;;15.80;99.90;;;;;;4987466;28;20047;-58
2023/06/12 04:08:51;;;;;;;8.02;4.80;;;15.80;99.90;;;;;;4988667;28;20481;-59
2023/06/12 04:11:18;;;;;;;11.00;5.00;;;15.90;99.90;;;;;;4988926;28;20397;-56
2023/06/12 04:13:44;;;;;;;6.57;4.50;;;16.20;99.90;;;;;;4987908;28;20077;-55
2023/06/12 04:16:10;;;;;;;10.70;5.00;;;16.20;99.90;;;;;;4988461;28;21404;-59
2023/06/12 04:18:37;;;;;;;10.15;5.03;;;16.30;99.90;;;;;;4988070;28;20053;-55
2023/06/12 04:21:04;;;;;;;8.27;5.22;;;16.10;99.90;;;;;;4987763;28;20147;-57
2023/06/12 04:23:31;;;;;;;11.02;5.40;;;16.40;99.90;;;;;;4987895;28;20049;-58
2023/06/12 04:26:06;;;;;;;8.88;4.75;;;16.20;99.90;;;;;;4988521;28;20078;-56
2023/06/12 04:28:32;;;;;;;9.77;5.05;;;16.20;99.90;;;;;;4988059;28;20050;-57
2023/06/12 04:30:59;;;;;;;7.38;5.05;;;16.20;99.90;;;;;;4987800;28;20069;-59
2023/06/12 04:33:30;;;;;;;7.90;5.03;;;16.10;99.90;;;;;;4988698;28;20112;-62
2023/06/12 04:35:57;;;;;;;10.88;4.97;;;16.20;99.90;;;;;;4987122;28;20146;-61
2023/06/12 04:38:23;;;;;;;11.05;5.22;;;16.20;99.90;;;;;;4986609;28;20038;-59
2023/06/12 04:40:51;;;;;;;12.50;4.93;;;16.30;99.90;;;;;;4986400;28;20506;-51
2023/06/12 04:43:19;;;;;;;13.05;5.10;;;16.40;99.90;;;;;;4987137;28;20050;-53
2023/06/12 04:45:45;;;;;;;9.45;5.05;;;16.30;99.90;;;;;;4968124;28;20045;-60
2023/06/12 04:48:12;;;;;;;10.55;5.32;;;16.30;99.90;;;;;;4968885;28;20451;-55
2023/06/12 04:50:38;;;;;;;8.77;5.30;;;16.30;99.90;;;;;;4987051;28;20061;-54
2023/06/12 04:53:03;;;;;;;9.95;4.47;;;16.60;99.90;;;;;;4987399;28;20440;-52
2023/06/12 04:55:30;;;;;;;11.20;4.80;;;17.10;99.90;;;;;;4987253;28;20096;-58
2023/06/12 04:57:57;;;;;;;8.43;4.53;;;17.60;99.90;;;;;;4987877;28;20057;-58
2023/06/12 05:00:23;;;;;;;10.05;4.57;;;17.90;99.90;;;;;;4988106;28;20038;-49
2023/06/12 05:02:49;;;;;;;10.45;4.72;;;18.00;99.90;;;;;;4987230;28;20444;-58
2023/06/12 05:05:15;;;;;;;9.10;5.35;;;18.30;99.90;;;;;;4975107;28;20086;-59
2023/06/12 05:07:46;;;;;;;9.82;4.82;;;18.40;99.90;;;;;;4968033;28;20047;-53
2023/06/12 05:10:13;;;;;;;12.38;4.40;;;18.40;99.90;;;;;;4967476;28;20049;-56
2023/06/12 05:12:39;;;;;;;9.95;4.97;;;18.50;99.90;;;;;;4950531;28;20542;-52
2023/06/12 05:15:06;;;;;;;8.13;4.13;;;18.70;99.90;;;;;;4967964;28;20042;-59
2023/06/12 05:17:31;;;;;;;6.45;4.18;;;18.80;99.90;;;;;;4967449;28;20050;-57
2023/06/12 05:19:57;;;;;;;10.07;4.72;;;19.00;99.90;;;;;;4967953;28;20516;-57
2023/06/12 05:22:23;;;;;;;9.35;4.70;;;19.10;99.40;;;;;;4967325;28;20133;-55
2023/06/12 05:24:48;;;;;;;9.43;4.45;;;19.20;99.10;;;;;;4967422;28;20458;-56
2023/06/12 05:27:14;;;;;;;9.75;4.50;;;19.20;99.20;;;;;;4967752;28;20476;-56
2023/06/12 05:29:40;;;;;;;9.95;4.72;;;19.30;98.60;;;;;;4967674;28;20047;-59
2023/06/12 05:32:07;;;;;;;9.30;4.88;;;19.40;98.50;;;;;;4967214;28;20043;-59
2023/06/12 05:34:32;;;;;;;6.38;4.20;;;19.80;98.20;;;;;;4949178;28;20035;-53
2023/06/12 05:36:58;;;;;;;10.68;4.82;;;20.10;97.60;;;;;;4966631;28;20597;-48
2023/06/12 05:39:23;;;;;;;8.55;4.60;;;20.30;97.20;;;;;;4967479;28;20031;-60
2023/06/12 05:41:49;;;;;;;7.93;4.72;;;20.60;96.80;;;;;;4967168;28;20051;-54
2023/06/12 05:44:15;;;;;;;9.55;5.00;;;21.00;96.30;;;;;;4949328;28;20050;-57
2023/06/12 05:46:40;;;;;;;7.13;4.85;;;21.40;95.80;;;;;;4949300;28;20079;-60
2023/06/12 05:49:07;;;;;;;11.48;5.05;;;21.70;95.20;;;;;;4967529;28;20078;-51
2023/06/12 05:51:33;;;;;;;11.50;4.88;;;21.80;94.90;;;;;;4964413;28;20039;-60
2023/06/12 05:53:58;;;;;;;8.30;4.90;;;22.00;94.60;;;;;;4966774;28;20453;-54
2023/06/12 05:56:24;;;;;;;8.18;4.90;;;22.10;94.40;;;;;;4967187;28;20070;-55
2023/06/12 05:58:50;;;;;;;8.18;4.88;;;22.10;94.20;;;;;;4967523;28;20101;-54
2023/06/12 06:01:21;;;;;;;10.75;5.10;;;22.30;94.20;;;;;;4965967;28;20069;-58
2023/06/12 06:03:48;;;;;;;8.70;4.63;;;22.70;93.80;;;;;;4966444;28;20055;-60
2023/06/12 06:06:15;;;;;;;7.20;4.47;;;23.00;93.50;;;;;;4965950;28;20430;-56
2023/06/12 06:08:41;;;;;;;11.55;5.22;;;23.20;93.00;;;;;;4964038;28;20058;-55
2023/06/12 06:11:07;;;;;;;8.43;5.10;;;23.20;93.00;;;;;;4965424;28;20043;-52
2023/06/12 06:13:33;;;;;;;8.70;4.57;;;23.40;93.00;;;;;;4985134;28;20117;-60
2023/06/12 06:15:58;;;;;;;9.30;4.93;;;23.20;92.90;;;;;;4985732;28;20062;-49
2023/06/12 06:18:24;;;;;;;7.30;4.60;;;23.10;93.10;;;;;;4986572;28;20046;-60
2023/06/12 06:20:49;;;;;;;10.18;4.63;;;23.30;93.00;;;;;;4984985;28;20452;-59
2023/06/12 06:23:15;;;;;;;11.18;5.35;;;23.60;92.80;;;;;;4986445;28;20390;-54
2023/06/12 06:25:41;;;;;;;10.10;4.80;;;23.50;92.70;;;;;;4985500;28;20117;-59
2023/06/12 06:28:06;;;;;;;10.77;5.07;;;23.60;92.70;;;;;;4985935;28;20452;-53
2023/06/12 06:30:32;;;;;;;10.85;5.10;;;23.80;92.50;;;;;;4985926;28;20063;-54
2023/06/12 06:32:58;;;;;;;7.53;4.63;;;23.90;92.30;;;;;;4985671;28;20112;-49
2023/06/12 06:35:24;;;;;;;10.85;5.07;;;24.00;92.40;;;;;;4985608;28;20038;-54
2023/06/12 06:37:50;;;;;;;11.48;5.00;;;24.00;92.40;;;;;;4986014;28;20194;-55
2023/06/12 06:40:16;;;;;;;8.65;4.88;;;24.20;92.30;;;;;;4986401;28;20053;-59
2023/06/12 06:42:42;;;;;;;12.85;5.32;;;24.40;92.10;;;;;;4965855;28;20042;-59
2023/06/12 06:45:08;;;;;;;8.52;4.38;;;24.70;92.00;;;;;;4965832;28;20039;-55
2023/06/12 06:47:33;;;;;;;9.25;5.22;;;24.80;91.90;;;;;;4969546;28;20038;-48
2023/06/12 06:50:00;;;;;;;10.55;5.07;;;24.80;91.80;;;;;;4964859;28;20051;-57
2023/06/12 06:52:26;;;;;;;9.60;4.82;;;24.80;91.70;;;;;;4967202;28;20043;-52
2023/06/12 06:54:52;;;;;;;10.50;5.22;;;24.90;91.80;;;;;;4985814;28;20035;-59
2023/06/12 06:57:18;;;;;;;9.07;4.88;;;24.90;91.70;;;;;;4986089;28;20098;-53
2023/06/12 06:59:44;;;;;;;8.85;5.22;;;24.90;91.90;;;;;;4985654;28;20049;-55
2023/06/12 07:02:09;;;;;;;9.75;5.00;;;24.80;91.90;;;;;;4985464;28;20089;-58
2023/06/12 07:04:35;;;;;;;8.90;4.93;;;24.60;92.20;;;;;;4985854;28;20734;-56
2023/06/12 07:07:01;;;;;;;7.63;5.18;;;24.20;92.60;;;;;;4983765;28;20093;-52
2023/06/12 07:09:26;;;;;;;9.40;5.03;;;24.40;92.60;;;;;;4983962;28;20042;-60
2023/06/12 07:11:52;;;;;;;7.30;4.95;;;24.60;92.50;;;;;;4982655;28;20058;-60
2023/06/12 07:14:18;;;;;;;11.18;5.03;;;24.50;92.40;;;;;;4982962;28;20212;-55
2023/06/12 07:16:44;;;;;;;8.13;4.90;;;24.20;92.70;;;;;;4982745;28;20704;-60
2023/06/12 07:19:10;;;;;;;8.38;5.18;;;23.80;93.00;;;;;;4973836;28;20047;-59
2023/06/12 07:21:36;;;;;;;10.68;5.40;;;23.40;93.30;;;;;;4962623;28;20047;-56
2023/06/12 07:24:03;;;;;;;9.63;5.30;;;23.20;93.70;;;;;;4962628;28;20523;-55
2023/06/12 07:26:28;;;;;;;9.82;5.28;;;23.00;93.90;;;;;;4963813;28;20043;-60
2023/06/12 07:28:54;;;;;;;13.25;5.75;;;23.10;94.20;;;;;;4948089;28;20482;-57
2023/06/12 07:31:20;;;;;;;9.88;5.40;;;23.10;94.20;;;;;;4982702;28;20104;-57
2023/06/12 07:33:46;;;;;;;11.10;5.50;;;23.30;94.20;;;;;;4982768;28;20243;-60
2023/06/12 07:36:12;;;;;;;11.98;5.70;;;23.40;94.20;;;;;;4982081;28;20049;-58
2023/06/12 07:38:39;;;;;;;6.97;5.43;;;23.60;94.20;;;;;;4982940;28;20101;-54
2023/06/12 07:41:04;;;;;;;10.45;5.40;;;23.70;94.00;;;;;;4981969;28;20129;-60
2023/06/12 07:43:34;;;;;;;9.68;5.65;;;23.90;94.10;;;;;;4975406;28;20133;-60
2023/06/12 07:46:03;;;;;;;11.10;5.47;;;24.10;93.80;;;;;;4963092;28;20101;-60
2023/06/12 07:48:28;;;;;;;12.60;5.20;;;24.20;93.60;;;;;;4962972;28;20054;-57
2023/06/12 07:50:55;;;;;;;7.65;5.10;;;24.40;93.50;;;;;;4962730;28;20042;-56
2023/06/12 07:53:20;;;;;;;9.90;5.50;;;24.40;93.50;;;;;;4945869;28;20057;-57
2023/06/12 07:55:47;;;;;;;8.65;5.55;;;24.60;93.40;;;;;;4962654;28;20469;-50
2023/06/12 07:58:13;;;;;;;12.68;5.28;;;24.70;93.20;;;;;;4963016;28;20047;-57
2023/06/12 08:00:38;;;;;;;7.43;5.15;;;24.80;93.10;;;;;;4963226;28;20035;-58
2023/06/12 08:03:04;;;;;;;8.25;5.75;;;24.80;93.20;;;;;;4962851;28;20047;-58
2023/06/12 08:05:30;;;;;;;13.45;5.32;;;24.60;93.00;;;;;;4962148;28;20077;-57
2023/06/12 08:07:58;;;;;;;10.93;6.00;;;24.50;93.40;;;;;;4963226;28;20150;-56
2023/06/12 08:10:24;;;;;;;11.45;5.53;;;24.40;93.30;;;;;;4963050;28;20043;-59
2023/06/12 08:12:49;;;;;;;9.30;5.38;;;24.60;93.50;;;;;;4962307;28;20066;-57
2023/06/12 08:15:15;;;;;;;9.95;5.85;;;24.60;93.60;;;;;;4965714;28;20055;-58
2023/06/12 08:17:42;;;;;;;10.30;5.75;;;24.70;93.50;;;;;;4985566;28;20452;-59
2023/06/12 08:20:09;;;;;;;9.95;5.40;;;24.90;93.40;;;;;;4985226;28;20050;-57
2023/06/12 08:22:39;;;;;;;13.13;5.57;;;25.20;93.20;;;;;;4985411;28;20108;-51
2023/06/12 08:25:06;;;;;;;8.85;5.85;;;25.50;93.10;;;;;;4978655;28;20061;-57
2023/06/12 08:27:33;;;;;;;9.90;5.85;;;25.50;92.70;;;;;;4986424;28;20054;-60
2023/06/12 08:29:59;;;;;;;9.00;5.72;;;25.50;92.60;;;;;;4984836;28;20122;-53
2023/06/12 08:32:26;;;;;;;11.38;5.97;;;25.30;92.30;;;;;;4985583;28;20057;-60
2023/06/12 08:34:53;;;;;;;10.35;5.88;;;25.10;92.60;;;;;;4984985;28;20089;-56
2023/06/12 08:37:19;;;;;;;8.02;5.97;;;25.00;92.90;;;;;;4985123;28;20121;-58
2023/06/12 08:39:45;;;;;;;15.07;6.35;;;25.10;92.80;;;;;;4985733;28;20046;-59
2023/06/12 08:42:16;;;;;;;10.30;6.40;;;25.20;92.60;;;;;;4985232;28;20046;-56
2023/06/12 08:44:46;;;;;;;9.98;6.40;;;25.30;92.40;;;;;;4984611;28;20039;-57
2023/06/12 08:47:13;;;;;;;8.55;5.97;;;25.40;92.10;;;;;;4985385;28;20384;-55
2023/06/12 08:49:39;;;;;;;9.75;6.32;;;25.60;92.40;;;;;;4984758;28;20058;-58
2023/06/12 08:52:06;;;;;;;11.80;6.90;;;25.80;92.10;;;;;;4985759;28;20053;-59
2023/06/12 08:54:37;;;;;;;7.95;6.55;;;26.00;92.00;;;;;;4985601;28;20093;-60
2023/06/12 08:57:06;;;;;;;13.45;6.90;;;26.20;91.70;;;;;;4985499;28;20046;-60
2023/06/12 08:59:31;;;;;;;9.27;6.30;;;26.40;91.60;;;;;;4984772;28;20449;-52
2023/06/12 09:01:58;;;;;;;10.85;6.40;;;26.40;91.30;;;;;;4984984;28;20046;-56
2023/06/12 09:04:41;;;;;;;9.00;5.95;;;26.50;91.40;;;;;;4968116;28;20061;-61
2023/06/12 09:07:07;;;;;;;10.15;6.10;;;26.70;91.60;;;;;;4985183;28;20077;-60
2023/06/12 09:09:40;;;;;;;10.35;5.97;;;26.90;91.50;;;;;;4971009;28;20043;-55
2023/06/12 09:12:12;;;;;;;12.32;6.43;;;27.10;91.40;;;;;;4965088;28;20043;-54
2023/06/12 09:14:39;;;;;;;7.13;6.18;;;27.30;90.90;;;;;;4964665;28;20065;-54
2023/06/12 09:17:07;;;;;;;11.65;6.38;;;27.30;90.90;;;;;;4977144;28;20034;-55
2023/06/12 09:19:38;;;;;;;10.85;6.05;;;27.50;90.20;;;;;;4983602;28;20564;-58
2023/06/12 09:22:04;;;;;;;8.02;6.47;;;27.50;89.10;;;;;;4966637;28;20108;-60
2023/06/12 09:24:30;;;;;;;8.77;6.18;;;27.40;89.40;;;;;;4986200;28;20093;-60
2023/06/12 09:26:55;;;;;;;8.00;5.80;;;27.30;90.10;;;;;;4986911;28;20082;-60
2023/06/12 09:29:32;;;;;;;9.63;5.97;;;27.40;90.20;;;;;;4986984;28;20129;-59
2023/06/12 09:31:59;;;;;;;6.93;5.55;;;27.50;89.50;;;;;;4986683;28;20051;-56
2023/06/12 09:34:24;;;;;;;8.38;6.07;;;27.70;89.80;;;;;;4986865;28;20057;-51
2023/06/12 09:36:50;;;;;;;7.97;4.95;;;27.90;89.50;;;;;;4985500;28;20042;-55
2023/06/12 09:39:26;;;;;;;7.32;5.90;;;28.20;88.90;;;;;;4987091;28;20092;-55
2023/06/12 09:41:53;;;;;;;12.13;6.32;;;28.40;87.90;;;;;;4970886;28;20129;-59
2023/06/12 09:44:23;;;;;;;7.45;5.38;;;28.50;86.30;;;;;;4966679;28;20046;-58
2023/06/12 09:46:50;;;;;;;14.60;5.82;;;28.40;86.50;;;;;;4965579;28;20038;-54
2023/06/12 09:49:19;;;;;;;11.35;5.80;;;28.60;87.10;;;;;;4965443;28;20050;-54
2023/06/12 09:51:49;;;;;;;11.13;6.30;;;28.70;86.30;;;;;;4963454;28;20042;-53
2023/06/12 09:54:16;;;;;;;9.82;5.85;;;28.80;86.20;;;;;;4965068;28;20442;-57
2023/06/12 09:56:44;;;;;;;10.88;5.60;;;29.00;87.00;;;;;;4964687;28;20240;-55
2023/06/12 09:59:16;;;;;;;8.40;5.32;;;29.10;86.50;;;;;;4964328;28;20039;-49
2023/06/12 10:01:57;;;;;;;9.30;5.93;;;29.30;86.30;;;;;;4984495;28;20042;-54
2023/06/12 10:04:50;;;;;;;11.25;5.97;;;29.40;85.80;;;;;;4966017;28;20042;-49
2023/06/12 10:07:20;;;;;;;10.68;5.80;;;29.60;87.20;;;;;;4984518;28;20050;-54
2023/06/12 10:09:47;;;;;;;9.48;5.70;;;29.80;86.60;;;;;;4983531;28;20113;-56
2023/06/12 10:12:14;;;;;;;16.75;6.18;;;30.00;86.30;;;;;;4983864;28;20399;-58
2023/06/12 10:14:40;;;;;;;9.20;5.30;;;30.10;86.70;;;;;;4984427;28;20058;-54
2023/06/12 10:17:08;;;;;;;8.63;5.78;;;30.20;85.90;;;;;;4983789;28;20042;-56
2023/06/12 10:19:37;;;;;;;8.80;5.63;;;30.30;85.60;;;;;;4982651;28;20563;-59
2023/06/12 10:22:06;;;;;;;9.55;5.55;;;30.40;85.20;;;;;;4983973;28;20046;-56
2023/06/12 10:24:32;;;;;;;9.90;5.85;;;30.50;85.30;;;;;;4984009;28;20420;-58
2023/06/12 10:26:59;;;;;;;9.43;5.80;;;30.60;84.80;;;;;;4983110;28;20050;-55
2023/06/12 10:29:26;;;;;;;12.25;5.85;;;30.70;84.30;;;;;;4967156;28;20421;-57
2023/06/12 10:31:52;;;;;;;6.90;5.47;;;30.70;84.60;;;;;;4968965;28;20054;-54
2023/06/12 10:34:17;;;;;;;10.70;5.97;;;30.70;84.20;;;;;;4985059;28;20524;-55
2023/06/12 10:36:46;;;;;;;15.50;6.88;;;30.80;83.00;;;;;;4985167;28;20158;-52
2023/06/12 10:39:15;;;;;;;14.73;6.32;;;30.60;82.90;;;;;;4986470;28;20057;-57
2023/06/12 10:41:51;;;;;;;8.43;5.22;;;30.50;83.00;;;;;;4985752;28;20054;-57
2023/06/12 10:44:36;;;;;;;12.95;5.60;;;30.40;82.90;;;;;;4985733;28;20053;-57
2023/06/12 10:47:03;;;;;;;7.68;5.65;;;30.50;83.00;;;;;;4985257;28;20046;-56
2023/06/12 10:49:29;;;;;;;6.78;6.05;;;30.80;83.90;;;;;;4984725;28;20053;-57
2023/06/12 10:51:57;;;;;;;7.90;6.05;;;31.00;83.60;;;;;;4984892;28;20088;-56
2023/06/12 10:54:27;;;;;;;7.70;5.88;;;31.20;82.60;;;;;;4984754;28;20065;-55
2023/06/12 10:57:00;;;;;;;14.40;6.15;;;31.10;82.00;;;;;;4985058;28;20043;-49
2023/06/12 10:59:35;;;;;;;8.57;6.57;;;31.00;82.50;;;;;;4985152;28;20129;-59
2023/06/12 11:02:02;;;;;;;8.93;5.95;;;31.00;80.30;;;;;;4983941;28;20049;-55
2023/06/12 11:04:34;;;;;;;7.25;5.90;;;31.00;81.30;;;;;;4983676;28;20080;-55
2023/06/12 11:07:00;;;;;;;9.55;5.80;;;31.20;81.40;;;;;;4984264;28;20430;-51
2023/06/12 11:09:26;;;;;;;10.95;5.80;;;31.30;80.80;;;;;;4983840;28;20097;-58
2023/06/12 11:11:51;;;;;;;9.48;5.80;;;31.50;80.60;;;;;;4984889;28;20073;-56
2023/06/12 11:14:23;;;;;;;10.32;5.90;;;31.50;80.80;;;;;;4985668;28;20137;-57
2023/06/12 11:16:48;;;;;;;10.13;5.82;;;31.50;80.10;;;;;;4967398;28;20125;-59
2023/06/12 11:19:14;;;;;;;10.45;6.13;;;31.50;79.60;;;;;;4985171;28;20428;-52
2023/06/12 11:21:40;;;;;;;12.15;6.05;;;31.50;80.10;;;;;;4985835;28;20720;-56
2023/06/12 11:24:07;;;;;;;7.97;5.93;;;31.60;80.30;;;;;;4984854;28;20046;-58
2023/06/12 11:26:33;;;;;;;8.50;5.85;;;31.70;81.00;;;;;;4985555;28;20093;-55
2023/06/12 11:29:15;;;;;;;9.55;5.93;;;31.60;79.80;;;;;;4984879;28;20050;-57
2023/06/12 11:31:46;;;;;;;8.77;6.57;;;31.50;80.00;;;;;;4985029;28;20044;-58
2023/06/12 11:34:11;;;;;;;10.82;6.30;;;31.30;80.90;;;;;;4985379;28;20606;-58
2023/06/12 11:36:37;;;;;;;6.65;5.95;;;31.10;80.30;;;;;;4968082;28;20050;-58
2023/06/12 11:39:16;;;;;;;10.27;6.68;;;30.80;79.10;;;;;;4967056;28;20054;-58
2023/06/12 11:41:42;;;;;;;8.77;6.60;;;30.90;78.00;;;;;;4985651;28;20133;-58
2023/06/12 11:44:08;;;;;;;11.00;6.50;;;31.00;80.00;;;;;;4985054;28;20134;-59
2023/06/12 11:46:33;;;;;;;11.55;6.05;;;31.10;79.60;;;;;;4984620;28;20085;-50
2023/06/12 11:48:59;;;;;;;7.45;6.70;;;31.00;79.70;;;;;;4986552;28;20659;-57
2023/06/12 11:51:25;;;;;;;11.27;6.25;;;30.90;80.00;;;;;;4971633;28;20039;-57
2023/06/12 11:53:51;;;;;;;12.15;6.50;;;30.80;79.70;;;;;;4953185;28;20458;-54
2023/06/12 11:56:16;;;;;;;10.82;6.78;;;30.90;79.70;;;;;;4989026;28;20113;-54
2023/06/12 11:58:44;;;;;;;7.47;5.88;;;31.00;79.50;;;;;;4988889;28;20254;-54
2023/06/12 12:01:23;;;;;;;9.40;7.05;;;30.80;80.10;;;;;;4988490;28;20532;-58
2023/06/12 12:03:49;;;;;;;8.90;6.40;;;30.70;78.60;;;;;;4988488;28;20098;-53
2023/06/12 12:06:16;;;;;;;9.43;6.68;;;30.60;79.00;;;;;;4979033;28;20160;-57
2023/06/12 12:08:42;;;;;;;13.82;6.57;;;30.50;79.10;;;;;;4961626;28;20046;-56
2023/06/12 12:11:22;;;;;;;9.00;6.45;;;30.30;79.40;;;;;;4966224;28;20046;-54
2023/06/12 12:14:08;;;;;;;8.73;6.32;;;30.10;78.30;;;;;;4967133;28;20054;-53
2023/06/12 12:16:39;;;;;;;10.20;6.93;;;30.00;79.90;;;;;;4967576;28;20063;-57
2023/06/12 12:19:19;;;;;;;7.60;6.50;;;30.20;78.20;;;;;;4960613;28;20392;-57
2023/06/12 12:21:46;;;;;;;7.57;6.38;;;30.50;77.90;;;;;;4957668;28;20039;-56
2023/06/12 12:24:12;;;;;;;11.07;6.47;;;30.70;78.70;;;;;;4958705;28;20059;-58
2023/06/12 12:26:48;;;;;;;10.98;7.03;;;31.00;78.80;;;;;;4960407;28;20053;-55
2023/06/12 12:29:14;;;;;;;10.35;6.95;;;31.10;77.90;;;;;;4948400;28;20394;-54
2023/06/12 12:31:40;;;;;;;7.97;6.43;;;31.10;77.00;;;;;;4966070;28;20039;-52
2023/06/12 12:34:08;;;;;;;8.18;6.53;;;31.20;77.10;;;;;;4947846;28;20047;-52
2023/06/12 12:36:34;;;;;;;9.00;6.97;;;31.30;77.90;;;;;;4946899;28;20093;-52
2023/06/12 12:39:00;;;;;;;8.48;6.97;;;31.20;77.10;;;;;;4966968;28;20094;-52
2023/06/12 12:41:26;;;;;;;9.65;7.20;;;31.00;77.60;;;;;;4969664;28;20039;-58
2023/06/12 12:43:52;;;;;;;9.15;7.10;;;30.70;76.90;;;;;;4965961;28;20043;-53
2023/06/12 12:46:18;;;;;;;10.27;7.32;;;30.30;76.70;;;;;;4968480;28;20675;-57